Scroll down
FLIGHT INFORMATION
Norwegian Air Shuttle

NAX3647

Diverted

LFMN
 EDDH
[Original Destination: EDDH ]
DATE: 2020-08-05
GATE:  -
GATE DEPARTURE: 17:50
TAKEOFF: 17:59
DATE: 2020-08-05
GATE:  -
LANDING: 19:53
GATE ARRIVAL: 19:57
FLIGHT DATA
Crew: ANTON VIND
Speed: 463 kts Altitude: 36000 ft
Stage Length: 748 nm
Route: 
Block Time: 2.1 Flight Time: 1.9
Fuel Used: 11781 LB
TRACK DATA
50000 FT1000 KT
AIRCRAFT INFORMATION
Aircraft Type: B738BW
Registration: SE-RRC
SELCAL:  MSN/LN: 40869 / 3651
Operator: NORWEGIAN AIR SHUTTLE
Flights: 37 Block Time: 71.7 Flight Time: 64.6
Fuel Used: 399045 LB
  • DEPARTURE INFORMATION
    Date: 2020-08-05
    Airport: LFMN
    Gate:  -
    Gate Departure: 17:50
    Takeoff: 17:59
    ARRIVAL INFORMATION
    Date: 2020-08-05
    Airport: EDDH [Original Destination: EDDH ]
    Gate:  -
    Landing: 19:53
    Gate Arrival: 19:57
  • FLIGHT DATA
    Crew: ANTON VIND
    Speed: 463 kts Altitude: 36000 ft
    Stage Length: 404 nm
    Route: 
    Block Time: 2.1 Flight Time: 1.9
    Fuel Used: 11781 LB
  • AIRCRAFT INFORMATION
    Aircraft Type: B738BW
    Registration: SE-RRC
    SELCAL:  MSN/LN: 40869 / 3651
    Operator: Norwegian Air Shuttle
    Flights: 37 Block Time: 71.7 Flight Time: 64.6
    Fuel Used: 399045 LB

DATALINK LOG | Newest first | Current as of: 2020-09-30 09:57:38
LABEL SEQUENCE CONTENT Dn/Up
QC543219:53▼ Dn
GA4928ADVANCED GATE ASSIGNMENTS NOT YET AVAILABLE AT THIS AIRPORT▲ Up
GR4928EDDH 19:53 HI-VAL NO DIPL/VIP NO▼ Dn
2U4850EDDH 051920Z VRB01KT CAVOK 21/13 Q1016 NOSIG▲ Up
2S4828EDDH▼ Dn
2U2248EDDH 051850Z 26003KT CAVOK 23/12 Q1016 NOSIG▲ Up
2S2201EDDH▼ Dn
DM551858PAN PAN PAN 005500 LBS OF FUEL REMAINING AND 175 PERSONS ON BOARD DIVERTING TO EDDH OFFSETTING 060 NM LEFT OF ROUTE DESCENDING TO FL 050▼ Dn
UM203929CLEARED TO FL 360▲ Up
DM63919REQUEST FL 360 DUE TO A/C PERF▼ Dn
UM740354PROCEED DIRECT TO ROMIR▲ Up
DM220344REQUEST DIRECT TO ROMIR▼ Dn
QB594117:59▼ Dn
QA503217:50 22.1▼ Dn
5U3734EKCH 052130Z 18005KT 9999 FEW040 21/14 Q1016▲ Up
5S3719EKCH▼ Dn
2U3503EKCH 051720Z AUTO 18011KT 140V210 9999 FEW130/// SCT150/// BKN180/// 21/14 Q1016 NOSIG▲ Up
2U3503LFMN 051700Z 18004KT 9999 FEW050 27/16 Q1013 NOSIG▲ Up
2S3517LFMN EKCH▼ Dn
A32913CLEARED TO EKCH VIA IRMA6C IRMAR UN853 MOBLO UZ662 LAMUR UZ67 KORED UN871 DITON T163 ZUE T125 ROMIR N851 VEDOK LOKTA TEDGO UN851 KEMAD AMALI MAKEL N851 GESKA Z711 MONAK MONA1N. SQUAWK .▲ Up
B32912LFMN EKCH NAX3647 SE-RRC ▼ Dn
A32912CLEARED TO EKCH VIA IRMA6C IRMAR UN853 MOBLO UZ662 LAMUR UZ67 KORED UN871 DITON T163 ZUE T125 ROMIR N851 VEDOK LOKTA TEDGO UN851 KEMAD AMALI MAKEL N851 GESKA Z711 MONAK MONA1N. SQUAWK .▲ Up
B32911LFMN EKCH NAX3647 SE-RRC ▼ Dn
Q02609[LINK ACK]▲ Up
Q02609[LINK TEST]▼ Dn


AIRCRAFT HISTORY
FLIGHT DATE FLIGHT NO. ORIGIN DESTINATION ROUTE BLOCK TIME FLIGHT TIME FUEL USED (LB) PILOT
2020-09-29NAX541ENZV ENGM ENZV UPLEV OSKOM RIPAM ENGM0.90.74701Anton Vind
2020-09-11NAX911ENGM ENZV 10.85334Kevin Hall
2020-09-11NAX911ESSA ENGM ESSA ARS BEDLA IBGAX EBURI TEKVA ESEBA ENGM10.96238Kevin Hall
2020-09-02NAX4064ESNQ ESSA ESNQ VAGAS ITVAV OSKIR REKMI RASEN OSK SIPRI HMR ESSA1.41.38185Robin Oeverby
2020-08-14NAX4063ESSA ESNQ ESSA RESNA OSK RASEN REKMI OSKIR ITVAV VAGAS ESNQ1.51.38793Robin Oeverby
2020-08-13NAX4334LDDU ESSA LDDU MADOS TODNI SIVLA BAREB EPARI PATAK BABKO EVGUR POLON EVEPU ADOXO PENEX NASOK BIBKA GRUDA IRLUN KARTI VAPOS DOMAG MOTAD PENOR TESPO ARMOD NILUG ESSA2.72.616031Robin Oeverby
2020-08-10NAX3280EKCH LDDU EKCH SIMEG TELMO KEKOV KOLOB ELPOL OGRES UNDUK NASOK PENEX ADOXO EVEPU POLON GIPOS VIDEV IRBOS NUBLI LUBEN OVBOR NEGUV KUKAM BABKO XOMBA VEBAL GUBOK NETKO NERRA LDDU2.42.213767Robin Oeverby
2020-08-07NAX3205ESSA EKCH 1.10.85783Anton Vind
2020-08-07NAX3204EKCH ESSA EKCH KEMAX NEXIL ROXEN DEKIK VEPIP BEDOS NEFYN MIKNA PELUP NILUG ESSA1.216510Anton Vind
2020-08-05NAX3647EDDH EKCH 0.70.64372Anton Vind
2020-08-05NAX3647LFMN EDDH 2.11.911781Anton Vind
2020-08-05NAX3646EKCH LFMN EKCH NEXEN GIMRU MICOS WRB RANAX EDEGA AMETU SOGMI BOMBI GIGET ABUKA KRH EPIXU NATOR TITIX TRA RIPUS GERSA SOSON DEGAD ODINA EVANO ENOBA ASBOP BORDI LFMN2.21.911799Anton Vind
2020-07-28NAX3090EKYT EKCH 0.70.53604Anton Vind
2020-07-28NAX3090EKCH EKYT EKCH MIKSI ASLID AAL EKYT0.70.53680Anton Vind
2020-07-19NAX3540EHAM EKCH 1.31.17106Anton Vind
2020-07-19NAX3540EKCH EHAM EKCH LANGO ALS DEMIR DEGUL GOLEN KUBAT EEL EHAM1.51.17800Anton Vind
2020-07-18NAX3668LEPA EKCH 3.22.917012Anton Vind
2020-07-18NAX3668EKCH LEPA EKCH LANGO DEGUL GOLEN KUBAT EEL LILSI PAM LEKKO LARAS KUDAD WOODY NIK DENOX CIV MEDIL PITHI LESDO KOVIN DUCRA RESMI DEKOD DISAK DEPOM DIRMO ETAMO VALKU ATSUP MINSO DITEV DEGOL PPG ALBER GIR NENDA KUREG LORES LEPA2.82.715682Anton Vind
2020-07-17NAX3647LFMN EKCH 2.32.112588Anton Vind
2020-07-17NAX3646EKCH LFMN EKCH SIMEG BALOX SALLO PEROM BAKDO TIMIB INDOK BIRMO SUVAL SOGMA GUGSU BUREL UBIGI ASMIG MAXAN ORTAG BAMKI IBAGA DKB GUPIN TEDGO NATOR TITIX TRA RIPUS GERSA SOSON DEGAD ODINA ENOBA ASBOP BORDI LFMN2.21.911832Anton Vind
2020-07-16NAX3563EPKK EKCH 1.41.37897Anton Vind
2020-07-16NAX3562EKCH EPKK EKCH SIMEG BIKRU BILRA XELOL DEMUR BEDAM VAVUN DOSAL PIXOR XERBI DENKO BINPO VELAB MISKA MAPIK EPKK1.51.28182Anton Vind
2020-07-15NAX948ENGM EKCH ENGM OKSAT GETPA KORET LATKU KELIN LALIL TOPLA ATRIB ERNOV EKCH1.40.96003Anton Vind
2020-07-15NAX413ENAL ENGM ENAL GIGIR KEMIV BELGU ENGM1.30.76116Anton Vind
2020-06-25NAX402ENGM ENAL ENGM GM442 GM616 GM619 GM717 EVTOG OSVIG XISCO OBITI ENAL0.90.74423Robin Oeverby
2020-06-21NAX1977LYBE ENGM LYBE TISAK TONDO BEGLA LOKVU LEMBI HDO BUSIR KOBUS EBASA LUROS OBANI IDOBA TUVAK GERGA RENKI RAKIT RODEP UDAXI MASOR LABES KOGIM ARGAD SALLO TOPLA XENTA REGMA LUNIP ENGM2.72.414994Robin Oeverby
2020-06-14NAX4341ESSA LYBE ESSA TRS NUGPU INGIS ARMOD TESPO PENOR MOTAD DOMAG VAPOS KARTI IRLUN GRUDA BIBKA NASOK PENEX ADOXO EVEPU POLON EVGUR BABKO LITKU PARAK TISAK LYBE2.32.213151Robin Oeverby
2020-06-12NAX4072ESGG ESSA ESGG LABAN DETSO PELIT TORVA ARS ELTOK ESSA10.74969Robin Oeverby
2020-06-11NAX4266LEAL ESGG LEAL MITOS ARGOR EBROX LATRO OLOXO OKABI TOU FISTO PERIG FOUCO ADABI BOKNO DEVRO VANAD VADOM BAMES ARSAF KOPOR MTD NURMO PERON SULEX CMB VEKIN ADUTO FERDI HELEN TOLEN STD EKROS SPY BETUS ANDIK KEKIX GRONY BEDUM LABIL JUIST NIRDU CORIS WELGO LEGPI TUSKA INSUS MIKRO BAVTA GIKIV INTET RADIS GOTEX LOBBI ESGG3.33.118625Robin Oeverby
2020-06-11NAX5345ENTC LEAL ENTC AMIMO GUBAV TUXOT SOMUB VEXOM TUTBI BELGU GIMEX RIPAM ULMUG PIPEX AMSEV PEVOR BAVTA MIKRO INSUS TUSKA LEGPI WELGO CORIS NIRDU JUIST TEMLU EEL LILSI PAM LEKKO LARAS KUDAD WOODY NIK DENOX CIV MEDIL PITHI LESDO KOVIN DUCRA RESMI DEKOD DISAK DEPOM DIRMO GUERE ETENU EVPOK MAKOX AGN ANETO TURUV GRAUS LOBAR SEROX CASPE MLA CRETA RIMES SAURA TATOS PLANA VLC LEAL54.827489Robin Oeverby
2020-06-10NAX328ENGM ENTC ENGM RIBBE GIGNI SOMUB TUXOT GUBAV AMIMO ENTC1.71.59596Robin Oeverby
2020-06-10NAX949EKCH ENGM EKCH VEDAR LASLI RISMA GIXUN SABAK XENTA REGMA LUNIP ENGM10.85826Robin Oeverby
2020-06-06NAX3615LPMA EKCH LPMA SNT LIDRO VABEM PINEK LOTEE NOVAN ERIGA MOKOR OLEBA BAKUL ARDOD OBATO RONAX SORAP DITAL EVX PODEM BAZOS SOMIL BELDI VEKIN ADUTO FERDI HELEN TOLEN DOSUR TALSA TUDLO EKCH4.3424034Robin Oeverby
2020-03-07NAX260LGSA LPMA 5.65.431323Chris Makris
2019-11-23NAX260LOWI LGSA 2.52.313794Chris Makris
2019-11-18NAX260ENGM LOWI 2.62.313667Chris Makris
2019-11-13NAX8187ESSA ENGM 1.10.86361Matthew Gales